createdAt,value
2024-03-12T00:01:01.568Z,33.10
2024-03-12T00:03:28.987Z,33.58
2024-03-12T00:06:00.984Z,32.60
2024-03-12T00:08:31.334Z,31.23
2024-03-12T00:10:58.664Z,31.50
2024-03-12T00:13:27.610Z,31.88
2024-03-12T00:15:55.852Z,32.33
2024-03-12T00:18:26.983Z,31.40
2024-03-12T00:20:54.712Z,30.85
2024-03-12T00:23:23.444Z,30.45
2024-03-12T00:25:50.566Z,31.55
2024-03-12T00:28:17.763Z,30.85
2024-03-12T00:30:45.989Z,31.45
2024-03-12T00:33:13.122Z,31.38
2024-03-12T00:35:44.440Z,30.25
2024-03-12T00:38:12.018Z,31.60
2024-03-12T00:40:40.173Z,29.83
2024-03-12T00:43:08.218Z,28.02
2024-03-12T00:45:39.567Z,28.95
2024-03-12T00:48:11.707Z,29.10
2024-03-12T00:50:40.003Z,29.95
2024-03-12T00:53:08.661Z,29.60
2024-03-12T00:55:37.445Z,30.50
2024-03-12T00:58:11.144Z,31.30
2024-03-12T01:00:38.507Z,30.13
2024-03-12T01:03:09.336Z,28.42
2024-03-12T01:05:40.245Z,28.42
2024-03-12T01:08:08.657Z,28.48
2024-03-12T01:10:36.453Z,30.38
2024-03-12T01:13:07.375Z,29.65
2024-03-12T01:15:36.091Z,29.63
2024-03-12T01:18:04.562Z,29.30
2024-03-12T01:20:35.631Z,31.30
2024-03-12T01:23:03.195Z,29.35
2024-03-12T01:25:30.577Z,27.98
2024-03-12T01:27:57.930Z,30.20
2024-03-12T01:30:28.892Z,28.55
2024-03-12T01:32:59.136Z,29.33
2024-03-12T01:35:26.570Z,29.25
2024-03-12T01:37:54.232Z,29.70
2024-03-12T01:40:31.006Z,29.50
2024-03-12T01:43:10.738Z,29.10
2024-03-12T01:45:39.525Z,30.57
2024-03-12T01:48:09.515Z,29.92
2024-03-12T01:50:38.297Z,28.45
2024-03-12T01:53:07.036Z,29.80
2024-03-12T01:55:38.635Z,28.88
2024-03-12T01:58:06.155Z,29.40
2024-03-12T02:00:34.318Z,28.80
2024-03-12T02:03:01.838Z,29.50
2024-03-12T02:05:28.910Z,29.80
2024-03-12T02:07:56.159Z,30.30
2024-03-12T02:10:23.123Z,28.77
2024-03-12T02:12:50.214Z,28.42
2024-03-12T02:15:24.641Z,29.70
2024-03-12T02:17:54.392Z,28.92
2024-03-12T02:20:22.753Z,29.65
2024-03-12T02:22:55.319Z,28.27
2024-03-12T02:25:23.121Z,27.67
2024-03-12T02:27:51.385Z,26.05
2024-03-12T02:30:18.581Z,27.27
2024-03-12T02:32:48.279Z,27.75
2024-03-12T02:35:17.153Z,27.67
2024-03-12T02:37:44.364Z,27.52
2024-03-12T02:40:14.703Z,28.13
2024-03-12T02:42:43.045Z,26.70
2024-03-12T02:45:15.468Z,25.73
2024-03-12T02:47:43.484Z,26.45
2024-03-12T02:50:10.694Z,25.38
2024-03-12T02:52:38.837Z,24.58
2024-03-12T02:55:06.659Z,24.08
2024-03-12T02:57:34.093Z,25.05
2024-03-12T03:00:01.200Z,25.38
2024-03-12T03:02:29.561Z,23.55
2024-03-12T03:04:56.613Z,26.25
2024-03-12T03:07:26.138Z,25.52
2024-03-12T03:09:53.301Z,25.48
2024-03-12T03:12:20.963Z,26.23
2024-03-12T03:14:47.695Z,24.30
2024-03-12T03:17:14.513Z,22.58
2024-03-12T03:19:41.456Z,23.25
2024-03-12T03:22:10.786Z,23.17
2024-03-12T03:24:38.586Z,23.57
2024-03-12T03:27:05.676Z,22.70
2024-03-12T03:29:36.835Z,23.15
2024-03-12T03:32:07.726Z,24.33
2024-03-12T03:34:34.645Z,22.38
2024-03-12T03:37:01.774Z,24.40
2024-03-12T03:39:31.748Z,24.08
2024-03-12T03:41:58.656Z,24.05
2024-03-12T03:44:25.473Z,23.65
2024-03-12T03:46:52.541Z,24.40
2024-03-12T03:49:20.205Z,22.70
2024-03-12T03:51:48.216Z,22.35
2024-03-12T03:54:15.091Z,21.63
2024-03-12T03:56:41.903Z,21.60
2024-03-12T03:59:09.896Z,22.15
2024-03-12T04:01:36.733Z,21.73
2024-03-12T04:04:12.019Z,19.77
2024-03-12T04:06:39.806Z,20.63
2024-03-12T04:09:06.754Z,20.10
2024-03-12T04:11:34.940Z,20.75
2024-03-12T04:14:03.857Z,20.60
2024-03-12T04:16:33.972Z,20.00
2024-03-12T04:19:00.909Z,21.17
2024-03-12T04:21:27.987Z,21.10
2024-03-12T04:23:54.934Z,21.08
2024-03-12T04:26:21.801Z,20.40
2024-03-12T04:28:48.832Z,20.70
2024-03-12T04:31:15.748Z,19.52
2024-03-12T04:33:43.468Z,21.40
2024-03-12T04:36:15.072Z,22.60
2024-03-12T04:38:42.365Z,19.33
2024-03-12T04:41:10.543Z,20.73
2024-03-12T04:43:37.860Z,21.73
2024-03-12T04:46:05.102Z,21.88
2024-03-12T04:48:32.222Z,21.33
2024-03-12T04:50:59.248Z,23.02
2024-03-12T04:53:26.598Z,20.83
2024-03-12T04:55:53.510Z,20.98
2024-03-12T04:58:20.332Z,21.33
2024-03-12T05:00:47.328Z,21.40
2024-03-12T05:03:14.337Z,20.85
2024-03-12T05:05:41.706Z,21.33
2024-03-12T05:08:09.166Z,20.15
2024-03-12T05:10:39.233Z,20.33
2024-03-12T05:13:06.142Z,20.77
2024-03-12T05:15:33.129Z,21.42
2024-03-12T05:18:00.003Z,19.80
2024-03-12T05:20:26.954Z,20.48
2024-03-12T05:22:55.318Z,20.40
2024-03-12T05:25:28.025Z,19.20
2024-03-12T05:27:55.083Z,20.98
2024-03-12T05:30:24.211Z,19.27
2024-03-12T05:32:54.340Z,19.88
2024-03-12T05:35:23.418Z,19.05
2024-03-12T05:38:03.834Z,20.65
2024-03-12T05:40:41.461Z,19.90
2024-03-12T05:43:27.516Z,19.45
2024-03-12T05:46:13.116Z,19.92
2024-03-12T05:48:40.398Z,19.42
2024-03-12T05:51:08.767Z,20.85
2024-03-12T05:53:38.054Z,20.02
2024-03-12T05:56:08.642Z,19.63
2024-03-12T05:58:36.060Z,19.73
2024-03-12T06:01:04.543Z,20.08
2024-03-12T06:03:31.647Z,20.38
2024-03-12T06:05:58.816Z,19.05
2024-03-12T06:08:25.974Z,18.67
2024-03-12T06:10:52.926Z,20.67
2024-03-12T06:13:21.351Z,19.00
2024-03-12T06:15:48.323Z,18.55
2024-03-12T06:18:15.183Z,18.55
2024-03-12T06:20:46.974Z,19.75
2024-03-12T06:23:20.020Z,18.58
2024-03-12T06:25:47.590Z,18.45
2024-03-12T06:28:15.824Z,17.67
2024-03-12T06:30:44.448Z,19.50
2024-03-12T06:33:13.286Z,19.45
2024-03-12T06:35:42.756Z,18.85
2024-03-12T06:38:10.107Z,18.23
2024-03-12T06:40:37.051Z,18.77
2024-03-12T06:43:04.168Z,18.20
2024-03-12T06:45:32.689Z,16.98
2024-03-12T06:48:01.732Z,17.73
2024-03-12T06:50:28.689Z,17.65
2024-03-12T06:52:56.566Z,17.27
2024-03-12T06:55:27.467Z,16.65
2024-03-12T06:58:01.062Z,16.10
2024-03-12T07:00:33.795Z,16.55
2024-03-12T07:03:04.039Z,17.77
2024-03-12T07:05:34.371Z,16.27
2024-03-12T07:08:01.396Z,16.15
2024-03-12T07:10:28.356Z,15.80
2024-03-12T07:12:57.238Z,16.52
2024-03-12T07:15:26.067Z,15.82
2024-03-12T07:17:53.696Z,16.17
2024-03-12T07:20:22.915Z,15.68
2024-03-12T07:22:50.177Z,16.23
2024-03-12T07:25:17.931Z,16.85
2024-03-12T07:27:45.261Z,16.42
2024-03-12T07:30:12.433Z,16.10
2024-03-12T07:32:39.385Z,15.70
2024-03-12T07:35:07.838Z,15.77
2024-03-12T07:37:39.564Z,15.85
2024-03-12T07:40:11.024Z,16.67
2024-03-12T07:42:39.572Z,16.25
2024-03-12T07:45:07.272Z,16.40
2024-03-12T07:47:34.149Z,17.63
2024-03-12T07:50:02.593Z,16.27
2024-03-12T07:52:31.014Z,15.43
2024-03-12T07:54:59.165Z,16.67
2024-03-12T07:57:25.998Z,16.77
2024-03-12T07:59:54.338Z,16.35
2024-03-12T08:02:22.793Z,16.02
2024-03-12T08:04:49.620Z,16.30
2024-03-12T08:07:20.546Z,15.73
2024-03-12T08:09:50.661Z,15.02
2024-03-12T08:12:18.491Z,15.55
2024-03-12T08:14:45.831Z,15.00
2024-03-12T08:17:13.713Z,15.27
2024-03-12T08:19:49.405Z,14.95
2024-03-12T08:22:16.520Z,14.25
2024-03-12T08:24:45.197Z,14.70
2024-03-12T08:27:12.302Z,13.63
2024-03-12T08:29:39.185Z,15.20
2024-03-12T08:32:06.403Z,15.02
2024-03-12T08:34:33.354Z,15.20
2024-03-12T08:37:01.354Z,14.95
2024-03-12T08:39:29.648Z,14.10
2024-03-12T08:41:57.058Z,14.85
2024-03-12T08:44:24.810Z,14.15
2024-03-12T08:46:51.752Z,14.02
2024-03-12T08:49:18.706Z,14.57
2024-03-12T08:51:46.406Z,14.52
2024-03-12T08:54:15.170Z,13.23
2024-03-12T08:56:44.163Z,14.70
2024-03-12T08:59:15.079Z,15.07
2024-03-12T09:01:42.320Z,15.52
2024-03-12T09:04:09.618Z,14.43
2024-03-12T09:06:36.877Z,15.68
2024-03-12T09:09:03.986Z,15.88
2024-03-12T09:11:31.014Z,16.50
2024-03-12T09:13:57.998Z,14.45
2024-03-12T09:16:24.910Z,18.67
2024-03-12T09:18:51.996Z,15.20
2024-03-12T09:21:19.824Z,15.75
2024-03-12T09:23:56.347Z,16.33
2024-03-12T09:26:29.383Z,17.00
2024-03-12T09:28:56.726Z,16.20
2024-03-12T09:31:23.757Z,16.27
2024-03-12T09:33:53.169Z,16.65
2024-03-12T09:36:21.829Z,16.70
2024-03-12T09:38:51.679Z,14.70
2024-03-12T09:41:21.542Z,15.32
2024-03-12T09:43:48.495Z,15.57
2024-03-12T09:46:17.602Z,15.30
2024-03-12T09:48:46.401Z,14.35
2024-03-12T09:51:15.047Z,13.60
2024-03-12T09:53:43.476Z,14.88
2024-03-12T09:56:12.235Z,14.48
2024-03-12T09:58:39.694Z,14.77
2024-03-12T10:01:07.736Z,14.15
2024-03-12T10:03:38.578Z,14.82
2024-03-12T10:06:07.584Z,14.05
2024-03-12T10:08:36.050Z,14.73
2024-03-12T10:11:09.234Z,13.95
2024-03-12T10:13:39.700Z,14.73
2024-03-12T10:16:08.749Z,14.60
2024-03-12T10:18:36.305Z,14.88
2024-03-12T10:21:03.943Z,15.07
2024-03-12T10:23:33.211Z,15.10
2024-03-12T10:26:17.269Z,15.00
2024-03-12T10:28:51.835Z,14.50
2024-03-12T10:31:21.330Z,15.20
2024-03-12T10:33:51.530Z,13.88
2024-03-12T10:36:33.564Z,14.57
2024-03-12T10:39:01.002Z,14.98
2024-03-12T10:41:28.086Z,14.60
2024-03-12T10:44:12.211Z,14.95
2024-03-12T10:46:46.122Z,15.65
2024-03-12T10:49:14.435Z,16.05
2024-03-12T10:51:44.159Z,15.73
2024-03-12T10:54:17.681Z,17.65
2024-03-12T10:56:47.586Z,16.88
2024-03-12T10:59:16.114Z,16.75
2024-03-12T11:01:46.323Z,17.13
2024-03-12T11:04:14.801Z,16.85
2024-03-12T11:06:41.783Z,17.20
2024-03-12T11:09:12.916Z,16.42
2024-03-12T11:11:40.709Z,17.45
2024-03-12T11:14:08.831Z,17.38
2024-03-12T11:16:36.925Z,16.25
2024-03-12T11:19:25.799Z,16.40
2024-03-12T11:21:53.250Z,17.30
2024-03-12T11:24:31.215Z,18.30
2024-03-12T11:27:01.204Z,16.15
2024-03-12T11:30:05.670Z,16.58
2024-03-12T11:32:35.048Z,15.95
2024-03-12T11:35:29.327Z,18.70
2024-03-12T11:38:01.988Z,16.73
2024-03-12T11:40:38.866Z,16.42
2024-03-12T11:43:12.510Z,17.17
2024-03-12T11:45:49.616Z,16.73
2024-03-12T11:48:21.038Z,16.85
2024-03-12T11:50:59.129Z,16.02
2024-03-12T11:53:33.025Z,15.88
2024-03-12T11:56:11.871Z,16.67
2024-03-12T11:58:57.025Z,16.48
2024-03-12T12:01:32.248Z,17.65
2024-03-12T12:04:16.016Z,17.23
2024-03-12T12:06:46.179Z,17.92
2024-03-12T12:09:13.042Z,18.88
2024-03-12T12:11:40.688Z,17.85
2024-03-12T12:14:10.444Z,16.50
2024-03-12T12:16:38.139Z,17.90
2024-03-12T12:19:18.494Z,17.38
2024-03-12T12:21:50.277Z,16.48
2024-03-12T12:24:17.122Z,16.88
2024-03-12T12:26:48.057Z,18.10
2024-03-12T12:29:15.662Z,17.23
2024-03-12T12:31:43.168Z,17.17
2024-03-12T12:34:11.753Z,17.45
2024-03-12T12:36:44.294Z,16.40
2024-03-12T12:39:12.890Z,18.10
2024-03-12T12:41:44.997Z,17.58
2024-03-12T12:44:23.131Z,17.77
2024-03-12T12:46:53.481Z,18.38
2024-03-12T12:49:22.290Z,17.73
2024-03-12T12:51:51.284Z,19.45
2024-03-12T12:54:22.884Z,17.92
2024-03-12T12:56:51.276Z,19.20
2024-03-12T12:59:21.284Z,18.73
2024-03-12T13:01:49.344Z,18.30
2024-03-12T13:04:28.310Z,17.88
2024-03-12T13:06:57.307Z,20.02
2024-03-12T13:09:37.064Z,19.60
2024-03-12T13:12:09.224Z,20.60
2024-03-12T13:14:39.412Z,19.58
2024-03-12T13:17:10.000Z,19.17
2024-03-12T13:19:37.483Z,20.08
2024-03-12T13:22:10.622Z,20.17
2024-03-12T13:24:45.104Z,20.48
2024-03-12T13:27:12.530Z,20.40
2024-03-12T13:29:39.544Z,19.05
2024-03-12T13:32:06.728Z,21.67
2024-03-12T13:34:33.715Z,21.13
2024-03-12T13:37:00.812Z,21.70
2024-03-12T13:39:27.649Z,22.02
2024-03-12T13:41:55.483Z,21.38
2024-03-12T13:44:22.806Z,21.95
2024-03-12T13:46:49.666Z,21.88
2024-03-12T13:49:21.256Z,22.70
2024-03-12T13:51:48.947Z,23.10
2024-03-12T13:54:16.382Z,21.70
2024-03-12T13:56:43.674Z,22.00
2024-03-12T13:59:13.615Z,22.90
2024-03-12T14:01:41.983Z,22.95
2024-03-12T14:04:12.817Z,23.33
2024-03-12T14:06:40.166Z,24.17
2024-03-12T14:09:12.909Z,24.50
2024-03-12T14:11:40.106Z,23.40
2024-03-12T14:14:09.524Z,23.52
2024-03-12T14:16:36.668Z,23.48
2024-03-12T14:19:04.798Z,23.45
2024-03-12T14:21:34.088Z,24.75
2024-03-12T14:24:02.854Z,24.27
2024-03-12T14:26:30.310Z,23.60
2024-03-12T14:28:57.133Z,23.02
2024-03-12T14:31:24.194Z,23.20
2024-03-12T14:33:51.186Z,22.77
2024-03-12T14:36:18.213Z,24.40
2024-03-12T14:38:45.135Z,22.65
2024-03-12T14:41:13.013Z,23.38
2024-03-12T14:43:39.961Z,23.45
2024-03-12T14:46:07.740Z,22.95
2024-03-12T14:48:35.324Z,22.48
2024-03-12T14:51:02.417Z,23.17
2024-03-12T14:53:29.346Z,22.70
2024-03-12T14:55:57.479Z,22.88
2024-03-12T14:58:24.300Z,22.58
2024-03-12T15:00:51.267Z,21.65
2024-03-12T15:03:20.073Z,23.23
2024-03-12T15:05:54.943Z,22.40
2024-03-12T15:08:22.098Z,23.23
2024-03-12T15:10:48.936Z,23.80
2024-03-12T15:13:16.096Z,22.52
2024-03-12T15:15:43.092Z,22.92
2024-03-12T15:18:10.808Z,24.05
2024-03-12T15:20:37.615Z,23.35
2024-03-12T15:23:05.367Z,22.70
2024-03-12T15:25:32.490Z,23.50
2024-03-12T15:28:00.697Z,22.83
2024-03-12T15:30:29.183Z,23.83
2024-03-12T15:32:56.306Z,22.85
2024-03-12T15:35:24.666Z,23.13
2024-03-12T15:37:51.747Z,22.83
2024-03-12T15:40:20.608Z,23.10
2024-03-12T15:42:47.569Z,24.25
2024-03-12T15:45:16.933Z,23.80
2024-03-12T15:47:44.993Z,23.00
2024-03-12T15:50:17.199Z,21.10
2024-03-12T15:52:44.541Z,22.75
2024-03-12T15:55:13.402Z,21.30
2024-03-12T15:57:41.755Z,22.63
2024-03-12T16:00:09.904Z,21.65
2024-03-12T16:02:36.923Z,22.73
2024-03-12T16:05:06.465Z,22.40
2024-03-12T16:07:36.409Z,21.67
2024-03-12T16:10:05.325Z,22.40
2024-03-12T16:12:32.478Z,21.42
2024-03-12T16:15:02.612Z,21.63
2024-03-12T16:17:31.901Z,20.40
2024-03-12T16:19:58.837Z,20.25
2024-03-12T16:22:25.814Z,21.30
2024-03-12T16:24:52.801Z,20.52
2024-03-12T16:27:19.666Z,21.15
2024-03-12T16:29:47.651Z,20.33
2024-03-12T16:32:14.555Z,21.05
2024-03-12T16:34:41.379Z,21.95
2024-03-12T16:37:09.900Z,21.35
2024-03-12T16:39:39.633Z,21.85
2024-03-12T16:42:06.862Z,23.25
2024-03-12T16:44:33.688Z,22.77
2024-03-12T16:47:05.676Z,22.77
2024-03-12T16:49:33.375Z,21.70
2024-03-12T16:52:02.080Z,21.70
2024-03-12T16:54:31.807Z,22.25
2024-03-12T16:57:00.280Z,22.48
2024-03-12T16:59:27.436Z,22.20
2024-03-12T17:01:54.623Z,22.67
2024-03-12T17:04:21.913Z,21.40
2024-03-12T17:06:57.614Z,20.70
2024-03-12T17:09:25.388Z,21.63
2024-03-12T17:11:52.571Z,21.55
2024-03-12T17:14:27.492Z,20.35
2024-03-12T17:17:06.302Z,19.50
2024-03-12T17:19:35.488Z,20.15
2024-03-12T17:22:03.164Z,19.17
2024-03-12T17:24:31.820Z,19.65
2024-03-12T17:26:58.918Z,19.20
2024-03-12T17:29:26.765Z,18.55
2024-03-12T17:31:55.001Z,24.30
2024-03-12T17:34:22.700Z,18.73
2024-03-12T17:36:54.971Z,18.77
2024-03-12T17:39:22.234Z,22.42
2024-03-12T17:41:49.449Z,20.95
2024-03-12T17:44:17.842Z,20.88
2024-03-12T17:46:45.790Z,18.27
2024-03-12T17:49:17.594Z,18.77
2024-03-12T17:51:46.337Z,18.33
2024-03-12T17:54:17.092Z,20.13
2024-03-12T17:56:48.214Z,19.13
2024-03-12T17:59:19.840Z,19.48
2024-03-12T18:01:47.664Z,19.35
2024-03-12T18:04:15.350Z,20.13
2024-03-12T18:06:43.760Z,19.20
2024-03-12T18:09:21.263Z,19.65
2024-03-12T18:11:48.281Z,23.83
2024-03-12T18:14:15.875Z,20.55
2024-03-12T18:16:42.689Z,23.30
2024-03-12T18:19:09.610Z,19.30
2024-03-12T18:21:38.040Z,19.38
2024-03-12T18:24:05.619Z,26.88
2024-03-12T18:26:34.054Z,19.02
2024-03-12T18:29:04.030Z,17.65
2024-03-12T18:31:31.077Z,17.05
2024-03-12T18:33:58.033Z,16.73
2024-03-12T18:36:25.570Z,18.38
2024-03-12T18:38:52.521Z,16.35
2024-03-12T18:41:19.323Z,15.55
2024-03-12T18:43:46.133Z,15.75
2024-03-12T18:46:13.106Z,15.88
2024-03-12T18:48:40.218Z,15.57
2024-03-12T18:51:07.688Z,15.55
2024-03-12T18:53:35.504Z,15.65
2024-03-12T18:56:04.866Z,15.45
2024-03-12T18:58:31.994Z,14.85
2024-03-12T19:00:59.751Z,14.85
2024-03-12T19:03:42.338Z,15.60
2024-03-12T19:06:18.972Z,14.73
2024-03-12T19:08:52.991Z,14.73
2024-03-12T19:11:20.842Z,16.02
2024-03-12T19:13:48.372Z,14.75
2024-03-12T19:16:16.312Z,15.55
2024-03-12T19:18:49.429Z,15.02
2024-03-12T19:21:22.328Z,15.55
2024-03-12T19:23:52.417Z,15.90
2024-03-12T19:26:20.130Z,15.57
2024-03-12T19:28:47.206Z,14.73
2024-03-12T19:31:15.389Z,15.15
2024-03-12T19:33:44.859Z,15.73
2024-03-12T19:36:16.258Z,15.80
2024-03-12T19:38:43.555Z,15.15
2024-03-12T19:41:13.413Z,14.40
2024-03-12T19:43:40.943Z,14.52
2024-03-12T19:46:09.030Z,13.98
2024-03-12T19:48:37.037Z,13.93
2024-03-12T19:51:05.332Z,13.75
2024-03-12T19:53:34.329Z,13.80
2024-03-12T19:56:01.733Z,14.32
2024-03-12T19:58:29.496Z,13.45
2024-03-12T20:00:56.459Z,12.80
2024-03-12T20:03:26.499Z,13.55
2024-03-12T20:05:56.310Z,13.52
2024-03-12T20:08:24.107Z,13.10
2024-03-12T20:10:51.099Z,14.00
2024-03-12T20:13:18.239Z,14.20
2024-03-12T20:15:47.174Z,14.30
2024-03-12T20:18:15.428Z,13.88
2024-03-12T20:20:44.361Z,13.93
2024-03-12T20:23:11.805Z,14.07
2024-03-12T20:25:39.209Z,13.73
2024-03-12T20:28:10.515Z,13.55
2024-03-12T20:30:39.694Z,14.18
2024-03-12T20:33:09.560Z,13.60
2024-03-12T20:35:38.835Z,13.75
2024-03-12T20:38:09.481Z,13.25
2024-03-12T20:40:36.476Z,13.48
2024-03-12T20:43:03.699Z,13.43
2024-03-12T20:45:30.929Z,14.45
2024-03-12T20:47:59.217Z,13.60
2024-03-12T20:50:26.493Z,14.32
2024-03-12T20:52:53.286Z,13.57
2024-03-12T20:55:22.068Z,12.73
2024-03-12T20:57:49.578Z,13.60
2024-03-12T21:00:18.597Z,13.70
2024-03-12T21:02:49.560Z,14.05
2024-03-12T21:05:16.960Z,13.80
2024-03-12T21:07:44.794Z,13.95
2024-03-12T21:10:12.792Z,13.65
2024-03-12T21:12:40.377Z,13.68
2024-03-12T21:15:08.192Z,14.38
2024-03-12T21:17:35.730Z,13.73
2024-03-12T21:20:12.602Z,13.20
2024-03-12T21:22:39.617Z,13.73
2024-03-12T21:25:08.017Z,13.63
2024-03-12T21:27:35.051Z,13.73
2024-03-12T21:30:06.450Z,13.85
2024-03-12T21:32:34.249Z,13.13
2024-03-12T21:35:01.203Z,13.18
2024-03-12T21:37:27.995Z,13.52
2024-03-12T21:39:54.883Z,13.32
2024-03-12T21:42:23.065Z,13.60
2024-03-12T21:44:52.753Z,13.38
2024-03-12T21:47:20.378Z,14.00
2024-03-12T21:49:47.551Z,13.60
2024-03-12T21:52:16.974Z,13.98
2024-03-12T21:54:45.518Z,14.10
2024-03-12T21:57:12.369Z,14.60
2024-03-12T21:59:40.837Z,13.50
2024-03-12T22:02:07.813Z,13.70
2024-03-12T22:04:34.784Z,13.93
2024-03-12T22:07:03.396Z,14.50
2024-03-12T22:09:32.184Z,13.55
2024-03-12T22:11:59.217Z,13.43
2024-03-12T22:14:26.156Z,13.85
2024-03-12T22:16:53.022Z,13.80
2024-03-12T22:19:20.897Z,13.35
2024-03-12T22:21:49.131Z,14.98
2024-03-12T22:24:23.719Z,14.55
2024-03-12T22:26:54.335Z,13.85
2024-03-12T22:29:21.286Z,14.55
2024-03-12T22:31:49.638Z,14.32
2024-03-12T22:34:16.756Z,15.75
2024-03-12T22:36:45.218Z,14.27
2024-03-12T22:39:14.500Z,14.38
2024-03-12T22:41:48.819Z,13.95
2024-03-12T22:44:16.711Z,14.88
2024-03-12T22:46:45.522Z,16.23
2024-03-12T22:49:13.716Z,14.30
2024-03-12T22:51:41.654Z,14.45
2024-03-12T22:54:10.694Z,14.45
2024-03-12T22:56:37.819Z,14.07
2024-03-12T22:59:05.351Z,14.20
2024-03-12T23:01:36.821Z,14.68
2024-03-12T23:04:05.861Z,13.15
2024-03-12T23:06:32.960Z,13.45
2024-03-12T23:09:00.793Z,13.70
2024-03-12T23:11:28.557Z,14.88
2024-03-12T23:13:55.406Z,14.07
2024-03-12T23:16:22.374Z,13.20
2024-03-12T23:18:54.045Z,13.25
2024-03-12T23:21:21.682Z,13.43
2024-03-12T23:23:48.553Z,13.00
2024-03-12T23:26:18.197Z,13.00
2024-03-12T23:28:45.505Z,13.88
2024-03-12T23:31:12.592Z,11.88
2024-03-12T23:33:40.382Z,13.05
2024-03-12T23:36:08.527Z,13.63
2024-03-12T23:38:36.287Z,12.40
2024-03-12T23:41:03.479Z,12.88
2024-03-12T23:43:31.859Z,11.30
2024-03-12T23:45:58.913Z,11.60
2024-03-12T23:48:25.850Z,12.98
2024-03-12T23:50:54.823Z,12.35
2024-03-12T23:53:21.913Z,11.75
2024-03-12T23:55:49.074Z,11.82
2024-03-12T23:58:16.646Z,11.23
